Weather reports worldwide

Advertisment
Cholet, France (7233): temperature & dewpoint: 10.09.2019 05:00:00 - 16.09.2019 05:00:00 (CEST)Cholet, France (7233): wind speed & gusts: 10.09.2019 05:00:00 - 16.09.2019 05:00:00 (CEST)Cholet, France (7233): wind direction: 10.09.2019 05:00:00 - 16.09.2019 05:00:00 (CEST)Cholet, France (7233): reduced air pressure: 10.09.2019 05:00:00 - 16.09.2019 05:00:00 (CEST)Cholet, France (7233): precipitation: 10.09.2019 05:00:00 - 16.09.2019 05:00:00 (CEST)
Date & Time tt [°C] td [°C] ff [km/h] ff [kn] fx [km/h] fx [kn] dd ppp [hPa] rr [mm]
16.09.2019 05:00:00 - - - - - - - - -
16.09.2019 04:00:00 16,9 14,9 11 6 16 9 N 1021,7 0,0
16.09.2019 03:00:00 17,7 15,1 11 6 18 10 N 1022,0 0,0
16.09.2019 02:00:00 18,6 15,3 11 6 15 8 N 1022,2 -
16.09.2019 01:00:00 19,1 15,2 9 5 16 9 N 1022,2 0,0
16.09.2019 00:00:00 20,3 14,0 11 6 18 10 N 1022,4 0,0
15.09.2019 23:00:00 22,0 13,4 8 4 11 6 NNE 1022,1 0,0
15.09.2019 22:00:00 22,7 13,2 8 4 13 7 NNE 1021,9 0,0
15.09.2019 21:00:00 24,1 13,0 8 4 15 8 N 1021,6 0,0
15.09.2019 20:00:00 26,6 13,0 9 5 18 10 N 1021,1 -
15.09.2019 19:00:00 28,7 13,4 11 6 21 11 NNE 1021,0 0,0
15.09.2019 18:00:00 29,4 13,6 9 5 22 12 NNE 1020,9 0,0
15.09.2019 17:00:00 29,4 13,6 9 5 24 13 N 1021,4 0,0
15.09.2019 16:00:00 29,6 15,0 8 4 22 12 NNE 1021,9 0,0
15.09.2019 15:00:00 28,7 14,9 9 5 29 16 NNE 1022,6 0,0
15.09.2019 14:00:00 27,7 15,0 13 7 26 14 ENE 1023,2 -
15.09.2019 13:00:00 27,1 15,5 16 9 29 16 NE 1023,8 0,0
15.09.2019 12:00:00 26,0 15,4 18 10 24 13 NE 1024,4 0,0
15.09.2019 11:00:00 23,2 15,5 5 3 15 8 NE 1024,8 0,0
15.09.2019 10:00:00 19,7 14,7 8 4 18 10 NE 1024,9 0,0
15.09.2019 09:00:00 16,7 13,6 9 5 13 7 N 1024,5 0,0
15.09.2019 08:00:00 15,2 13,0 5 3 8 4 NNE 1024,4 -
15.09.2019 07:00:00 15,5 13,2 5 3 15 8 NNE 1024,4 0,0
15.09.2019 06:00:00 16,1 13,4 8 4 13 7 N 1024,3 0,0
15.09.2019 05:00:00 17,2 13,5 5 3 8 4 E 1024,6 0,0
15.09.2019 04:00:00 17,3 13,2 4 2 9 5 E 1024,9 0,0
15.09.2019 03:00:00 18,4 13,7 5 3 15 8 NE 1025,1 0,0
15.09.2019 02:00:00 18,8 14,1 11 6 15 8 N 1025,3 -
15.09.2019 01:00:00 19,3 14,3 4 2 11 6 NE 1025,3 0,0
15.09.2019 00:00:00 20,2 14,8 9 5 13 7 NNE 1025,6 0,0
14.09.2019 23:00:00 21,2 15,3 5 3 9 5 NNE 1025,8 0,0
14.09.2019 22:00:00 22,3 15,4 4 2 8 4 NNE 1025,6 0,0
14.09.2019 21:00:00 23,9 15,7 8 4 9 5 NE 1025,5 0,0
14.09.2019 20:00:00 25,5 15,5 9 5 16 9 E 1025,2 -
14.09.2019 19:00:00 27,7 16,0 13 7 22 12 E 1025,0 0,0
14.09.2019 18:00:00 28,3 15,9 13 7 24 13 E 1024,9 0,0
14.09.2019 17:00:00 28,0 16,0 13 7 26 14 ENE 1025,2 0,0
14.09.2019 16:00:00 27,3 15,6 16 9 29 16 ENE 1025,8 0,0
14.09.2019 15:00:00 26,4 16,0 18 10 31 17 ENE 1026,3 0,0
14.09.2019 14:00:00 26,1 16,1 18 10 29 16 ENE 1026,8 -
14.09.2019 13:00:00 24,8 15,7 18 10 29 16 ENE 1027,4 0,0
14.09.2019 12:00:00 22,6 15,7 18 10 29 16 NE 1027,9 0,0
14.09.2019 11:00:00 20,4 15,4 18 10 26 14 ENE 1028,7 0,0
14.09.2019 10:00:00 18,5 15,2 16 9 29 16 ENE 1028,8 0,0
14.09.2019 09:00:00 16,0 14,4 18 10 28 15 NE 1029,0 0,0
14.09.2019 08:00:00 14,7 13,7 15 8 22 12 NE 1029,0 -
14.09.2019 07:00:00 14,7 13,6 13 7 22 12 NNE 1028,7 0,0
14.09.2019 06:00:00 15,3 13,8 11 6 18 10 NNE 1028,8 0,0
14.09.2019 05:00:00 16,0 14,0 11 6 18 10 NNE 1028,8 0,0
14.09.2019 04:00:00 16,6 14,1 11 6 22 12 NNE 1029,1 0,0
14.09.2019 03:00:00 17,4 14,1 13 7 21 11 NE 1029,5 0,0
14.09.2019 02:00:00 17,9 14,2 11 6 21 11 NNE 1029,7 -
14.09.2019 01:00:00 18,7 14,4 13 7 21 11 NNE 1029,4 0,0
14.09.2019 00:00:00 19,4 14,9 15 8 21 11 NNE 1029,5 0,0
13.09.2019 23:00:00 20,0 15,0 13 7 22 12 NE 1029,5 0,0
13.09.2019 22:00:00 21,5 15,1 13 7 22 12 NNE 1029,4 0,0
13.09.2019 21:00:00 22,6 15,4 9 5 22 12 NNE 1029,3 0,0
13.09.2019 20:00:00 24,3 15,5 15 8 29 16 NE 1029,3 -
13.09.2019 19:00:00 26,1 15,8 18 10 35 19 NNE 1028,9 0,0
13.09.2019 18:00:00 26,6 15,6 22 12 37 20 NNE 1028,8 0,0
13.09.2019 17:00:00 26,7 15,7 18 10 29 16 NE 1029,3 0,0
13.09.2019 16:00:00 26,3 16,0 18 10 31 17 NNE 1029,8 0,0
13.09.2019 15:00:00 25,4 16,0 18 10 37 20 NNE 1030,5 0,0
13.09.2019 14:00:00 24,6 16,6 18 10 34 18 NE 1031,1 -
13.09.2019 13:00:00 23,1 16,4 18 10 39 21 NE 1031,7 0,0
13.09.2019 12:00:00 21,2 15,7 24 13 35 19 NNE 1032,0 0,0
13.09.2019 11:00:00 18,0 16,2 18 10 28 15 NNE 1032,8 0,0
13.09.2019 10:00:00 15,5 15,5 15 8 22 12 NNE 1033,0 0,0
13.09.2019 09:00:00 14,1 14,1 9 5 21 11 NNE 1032,8 0,0
13.09.2019 08:00:00 13,5 13,5 9 5 15 8 NNE 1032,6 -
13.09.2019 07:00:00 13,3 13,1 8 4 13 7 N 1032,1 0,0
13.09.2019 06:00:00 13,6 13,0 8 4 15 8 NNE 1031,8 0,0
13.09.2019 05:00:00 14,0 13,4 8 4 13 7 NNE 1032,0 0,0
13.09.2019 04:00:00 14,8 13,8 5 3 8 4 NE 1032,4 0,0
13.09.2019 03:00:00 14,5 13,2 0 0 9 5 N 1032,4 0,0
13.09.2019 02:00:00 15,1 13,8 5 3 9 5 N 1032,2 -
13.09.2019 01:00:00 16,3 14,1 9 5 13 7 NNW 1032,3 0,0
13.09.2019 00:00:00 16,8 14,1 5 3 8 4 N 1032,5 0,0
12.09.2019 23:00:00 17,4 14,3 4 2 8 4 NNW 1032,4 0,0
12.09.2019 22:00:00 18,5 14,8 4 2 9 5 NNW 1032,2 0,0
12.09.2019 21:00:00 19,6 15,0 4 2 9 5 NW 1031,6 0,0
12.09.2019 20:00:00 22,3 15,4 4 2 15 8 NW 1031,3 -
12.09.2019 19:00:00 23,4 15,4 8 4 16 9 W 1031,3 0,0
12.09.2019 18:00:00 23,5 15,5 8 4 18 10 WNW 1031,5 0,0
12.09.2019 17:00:00 23,3 15,6 9 5 15 8 WNW 1031,6 0,0
12.09.2019 16:00:00 22,0 15,6 8 4 24 13 WNW 1032,2 0,0
12.09.2019 15:00:00 22,4 15,7 8 4 16 9 W 1032,5 0,0
12.09.2019 14:00:00 21,2 15,3 8 4 22 12 NW 1032,7 -
12.09.2019 13:00:00 20,6 16,2 4 2 11 6 SSW 1032,9 0,0
12.09.2019 12:00:00 18,2 15,4 4 2 9 5 NNW 1033,4 0,0
12.09.2019 11:00:00 16,6 15,3 4 2 9 5 W 1033,0 0,0
12.09.2019 10:00:00 15,9 15,3 4 2 11 6 W 1032,5 0,0
12.09.2019 09:00:00 15,8 15,2 8 4 13 7 NNW 1031,9 0,0
12.09.2019 08:00:00 15,5 15,0 4 2 13 7 WNW 1031,2 -
12.09.2019 07:00:00 15,2 14,7 2 1 11 6 W 1030,8 0,0
12.09.2019 06:00:00 15,3 14,8 4 2 5 3 NW 1030,6 0,0
12.09.2019 05:00:00 14,7 14,4 4 2 9 5 SSW 1030,7 0,0
12.09.2019 04:00:00 14,4 14,1 4 2 8 4 W 1030,9 0,0
12.09.2019 03:00:00 13,9 13,4 4 2 8 4 SW 1030,9 0,0
12.09.2019 02:00:00 14,8 14,0 4 2 13 7 WSW 1030,4 -
12.09.2019 01:00:00 15,0 14,0 8 4 16 9 W 1030,3 0,0
12.09.2019 00:00:00 14,8 13,7 8 4 16 9 W 1030,2 0,0
11.09.2019 23:00:00 15,3 13,8 5 3 21 11 WSW 1030,0 0,0
11.09.2019 22:00:00 16,5 14,0 11 6 22 12 W 1029,2 0,0
11.09.2019 21:00:00 17,9 14,0 8 4 22 12 W 1028,6 0,0
11.09.2019 20:00:00 20,0 12,7 9 5 21 11 W 1027,8 -
11.09.2019 19:00:00 21,8 10,6 9 5 22 12 W 1027,7 0,0
11.09.2019 18:00:00 22,4 4,4 13 7 26 14 WNW 1027,3 0,0
11.09.2019 17:00:00 22,4 6,6 15 8 28 15 W 1027,1 0,0
11.09.2019 16:00:00 22,0 9,8 13 7 26 14 W 1027,1 0,0
11.09.2019 15:00:00 21,2 11,2 11 6 28 15 W 1027,5 0,0
11.09.2019 14:00:00 19,9 11,6 13 7 28 15 WNW 1027,5 -
11.09.2019 13:00:00 18,9 12,2 9 5 18 10 W 1027,6 0,0
11.09.2019 12:00:00 18,5 12,3 8 4 15 8 WNW 1027,5 0,0
11.09.2019 11:00:00 16,5 12,5 2 1 9 5 NW 1027,6 0,0
11.09.2019 10:00:00 13,9 12,9 4 2 11 6 N 1027,2 0,0
11.09.2019 09:00:00 11,8 11,8 0 0 8 4 N 1026,7 0,0
11.09.2019 08:00:00 10,7 10,7 2 1 5 3 SSE 1025,9 -
11.09.2019 07:00:00 10,7 10,7 5 3 8 4 N 1025,4 0,0
11.09.2019 06:00:00 10,6 10,6 4 2 9 5 N 1025,1 0,0
11.09.2019 05:00:00 11,2 11,2 5 3 9 5 NNW 1024,8 0,0
11.09.2019 04:00:00 11,5 11,2 4 2 13 7 NW 1024,8 0,0
11.09.2019 03:00:00 11,9 11,3 5 3 11 6 NNW 1024,9 0,0
11.09.2019 02:00:00 12,4 11,1 5 3 15 8 N 1024,4 -
11.09.2019 01:00:00 13,0 10,9 9 5 16 9 NNW 1024,5 0,0
11.09.2019 00:00:00 13,4 9,4 8 4 13 7 NNW 1023,7 0,0
10.09.2019 23:00:00 - - - - - - - - -
10.09.2019 22:00:00 15,3 8,3 4 2 8 4 NNW 1022,6 0,0
10.09.2019 21:00:00 16,8 8,2 4 2 13 7 NNW 1021,6 0,0
10.09.2019 20:00:00 19,6 7,3 9 5 28 15 NNE 1020,7 -
10.09.2019 19:00:00 - - - - - - - - -
10.09.2019 18:00:00 21,4 7,2 15 8 34 18 NNE 1019,2 0,0
10.09.2019 17:00:00 21,5 7,0 18 10 41 22 N 1019,0 0,0
10.09.2019 16:00:00 21,3 7,9 15 8 35 19 NNE 1018,7 0,0
10.09.2019 15:00:00 21,2 7,8 22 12 35 19 NNE 1018,7 0,0
10.09.2019 14:00:00 20,5 7,8 22 12 37 20 NNE 1018,8 -
10.09.2019 13:00:00 19,1 8,7 22 12 35 19 NE 1018,3 0,0
10.09.2019 12:00:00 17,6 10,2 21 11 31 17 NNE 1017,8 0,0
10.09.2019 11:00:00 15,3 10,5 15 8 26 14 NE 1017,0 0,0
10.09.2019 10:00:00 13,2 11,9 11 6 18 10 NNE 1016,2 0,0
10.09.2019 09:00:00 11,9 11,3 11 6 21 11 NNE 1015,4 0,0
10.09.2019 08:00:00 11,1 10,8 9 5 15 8 N 1014,3 -
10.09.2019 07:00:00 11,1 10,8 8 4 16 9 N 1013,6 0,0
10.09.2019 06:00:00 11,3 11,1 9 5 16 9 N 1012,7 0,0
10.09.2019 05:00:00 11,6 11,3 8 4 15 8 NNE 1012,1 0,0

tt = temperature
td = dewpoint
ff = wind speed
fx = gusts
dd = wind direction
ppp = reduced air pressure
rr = precipitation

Next stations